createdAt,value
2022-11-22T00:00:45.444Z,4.53
2022-11-22T00:03:13.073Z,4.21
2022-11-22T00:05:40.662Z,4.23
2022-11-22T00:08:08.467Z,4.26
2022-11-22T00:10:36.279Z,4.29
2022-11-22T00:13:04.678Z,4.52
2022-11-22T00:15:40.499Z,4.55
2022-11-22T00:18:09.374Z,4.15
2022-11-22T00:20:37.101Z,4.14
2022-11-22T00:23:04.939Z,4.39
2022-11-22T00:25:32.479Z,4.45
2022-11-22T00:28:00.042Z,4.47
2022-11-22T00:30:27.593Z,4.69
2022-11-22T00:32:55.113Z,4.57
2022-11-22T00:35:24.022Z,4.60
2022-11-22T00:37:51.575Z,4.58
2022-11-22T00:40:19.108Z,4.68
2022-11-22T00:42:46.760Z,4.91
2022-11-22T00:45:14.315Z,5.01
2022-11-22T00:47:41.871Z,4.98
2022-11-22T00:50:10.896Z,5.10
2022-11-22T00:52:39.770Z,5.09
2022-11-22T00:55:08.434Z,4.97
2022-11-22T00:57:36.059Z,4.58
2022-11-22T01:00:04.025Z,4.68
2022-11-22T01:02:31.588Z,4.60
2022-11-22T01:04:59.106Z,4.72
2022-11-22T01:07:26.783Z,5.03
2022-11-22T01:09:55.740Z,4.91
2022-11-22T01:12:23.268Z,4.77
2022-11-22T01:14:50.967Z,4.82
2022-11-22T01:17:18.796Z,4.65
2022-11-22T01:19:46.715Z,4.80
2022-11-22T01:22:14.435Z,4.98
2022-11-22T01:24:41.967Z,5.14
2022-11-22T01:27:10.972Z,5.25
2022-11-22T01:29:38.532Z,5.38
2022-11-22T01:32:06.604Z,5.45
2022-11-22T01:34:34.400Z,5.09
2022-11-22T01:37:01.955Z,5.04
2022-11-22T01:39:29.784Z,5.14
2022-11-22T01:41:57.681Z,4.95
2022-11-22T01:44:28.604Z,4.54
2022-11-22T01:46:58.754Z,4.31
2022-11-22T01:49:31.825Z,4.33
2022-11-22T01:52:04.059Z,4.36
2022-11-22T01:54:36.774Z,4.56
2022-11-22T01:57:07.794Z,4.50
2022-11-22T01:59:39.678Z,4.39
2022-11-22T02:02:07.671Z,4.32
2022-11-22T02:04:37.492Z,4.45
2022-11-22T02:07:11.056Z,4.59
2022-11-22T02:09:40.586Z,4.95
2022-11-22T02:12:09.952Z,4.87
2022-11-22T02:14:39.948Z,5.05
2022-11-22T02:17:07.561Z,5.16
2022-11-22T02:19:41.544Z,5.07
2022-11-22T02:22:19.942Z,5.05
2022-11-22T02:24:54.703Z,4.90
2022-11-22T02:27:24.738Z,4.73
2022-11-22T02:29:52.413Z,4.73
2022-11-22T02:32:20.032Z,4.68
2022-11-22T02:34:49.615Z,4.58
2022-11-22T02:37:25.119Z,4.48
2022-11-22T02:39:56.347Z,4.67
2022-11-22T02:42:26.347Z,4.50
2022-11-22T02:44:53.959Z,4.26
2022-11-22T02:47:21.503Z,4.29
2022-11-22T02:49:49.012Z,4.55
2022-11-22T02:52:17.830Z,4.25
2022-11-22T02:54:45.567Z,4.18
2022-11-22T02:57:13.682Z,3.88
2022-11-22T02:59:42.549Z,3.53
2022-11-22T03:02:10.110Z,3.46
2022-11-22T03:04:37.639Z,3.30
2022-11-22T03:07:05.329Z,3.23
2022-11-22T03:09:33.291Z,3.41
2022-11-22T03:12:01.146Z,3.42
2022-11-22T03:14:28.695Z,3.46
2022-11-22T03:16:57.576Z,3.53
2022-11-22T03:19:25.166Z,3.74
2022-11-22T03:21:52.697Z,3.86
2022-11-22T03:24:20.789Z,4.06
2022-11-22T03:26:49.531Z,4.16
2022-11-22T03:29:17.355Z,4.45
2022-11-22T03:31:44.894Z,4.45
2022-11-22T03:34:14.274Z,4.58
2022-11-22T03:36:41.837Z,4.87
2022-11-22T03:39:09.615Z,5.35
2022-11-22T03:41:37.248Z,5.33
2022-11-22T03:44:05.179Z,4.50
2022-11-22T03:46:32.711Z,4.35
2022-11-22T03:49:00.247Z,4.45
2022-11-22T03:51:29.183Z,4.87
2022-11-22T03:53:56.723Z,4.64
2022-11-22T03:56:24.275Z,4.23
2022-11-22T03:58:51.821Z,4.28
2022-11-22T04:01:19.505Z,4.25
2022-11-22T04:03:47.069Z,4.26
2022-11-22T04:06:14.605Z,4.14
2022-11-22T04:08:43.601Z,4.40
2022-11-22T04:11:12.168Z,4.48
2022-11-22T04:13:57.115Z,5.01
2022-11-22T04:16:24.670Z,4.47
2022-11-22T04:18:52.228Z,4.36
2022-11-22T04:21:34.084Z,4.54
2022-11-22T04:24:21.460Z,4.63
2022-11-22T04:26:49.205Z,4.49
2022-11-22T04:29:17.327Z,4.50
2022-11-22T04:32:02.577Z,4.93
2022-11-22T04:34:30.179Z,4.94
2022-11-22T04:36:57.754Z,5.00
2022-11-22T04:39:26.867Z,5.06
2022-11-22T04:42:16.192Z,4.98
2022-11-22T04:44:43.509Z,5.05
2022-11-22T04:47:12.521Z,5.35
2022-11-22T04:49:40.147Z,5.70
2022-11-22T04:52:25.619Z,5.48
2022-11-22T04:54:54.528Z,5.69
2022-11-22T04:57:22.074Z,5.44
2022-11-22T04:59:49.590Z,5.48
2022-11-22T05:02:17.215Z,5.31
2022-11-22T05:04:50.294Z,5.11
2022-11-22T05:07:20.361Z,4.98
2022-11-22T05:09:47.933Z,4.84
2022-11-22T05:12:16.794Z,5.10
2022-11-22T05:14:44.357Z,5.19
2022-11-22T05:17:13.557Z,5.38
2022-11-22T05:19:44.979Z,5.17
2022-11-22T05:22:16.534Z,5.35
2022-11-22T05:24:43.084Z,5.53
2022-11-22T05:27:10.622Z,5.74
2022-11-22T05:29:39.482Z,5.73
2022-11-22T05:32:07.010Z,5.54
2022-11-22T05:34:34.620Z,5.40
2022-11-22T05:37:02.624Z,5.36
2022-11-22T05:39:30.447Z,5.43
2022-11-22T05:41:58.217Z,5.27
2022-11-22T05:44:25.755Z,5.17
2022-11-22T05:46:54.644Z,5.04
2022-11-22T05:49:22.167Z,5.21
2022-11-22T05:51:49.734Z,5.35
2022-11-22T05:54:17.260Z,5.08
2022-11-22T05:56:44.803Z,5.42
2022-11-22T05:59:12.493Z,5.47
2022-11-22T06:01:40.096Z,5.37
2022-11-22T06:04:09.110Z,5.01
2022-11-22T06:06:36.707Z,4.93
2022-11-22T06:09:04.619Z,4.55
2022-11-22T06:11:32.317Z,4.28
2022-11-22T06:14:03.159Z,4.03
2022-11-22T06:16:30.790Z,3.89
2022-11-22T06:18:58.417Z,3.97
2022-11-22T06:21:28.541Z,4.06
2022-11-22T06:23:56.739Z,3.71
2022-11-22T06:26:25.361Z,3.87
2022-11-22T06:28:53.193Z,3.67
2022-11-22T06:31:22.841Z,3.90
2022-11-22T06:33:51.056Z,3.97
2022-11-22T06:36:20.416Z,4.38
2022-11-22T06:38:49.559Z,4.52
2022-11-22T06:41:18.914Z,4.58
2022-11-22T06:43:49.319Z,4.98
2022-11-22T06:46:18.353Z,5.19
2022-11-22T06:48:46.177Z,5.39
2022-11-22T06:51:15.560Z,5.04
2022-11-22T06:53:48.133Z,4.63
2022-11-22T06:56:19.298Z,4.89
2022-11-22T06:58:48.162Z,5.08
2022-11-22T07:01:18.547Z,5.36
2022-11-22T07:03:47.053Z,5.50
2022-11-22T07:06:16.029Z,5.85
2022-11-22T07:08:44.229Z,6.12
2022-11-22T07:11:14.188Z,6.06
2022-11-22T07:13:43.803Z,6.12
2022-11-22T07:16:13.091Z,6.35
2022-11-22T07:18:40.909Z,6.41
2022-11-22T07:21:13.241Z,6.49
2022-11-22T07:23:42.222Z,6.27
2022-11-22T07:26:10.114Z,6.29
2022-11-22T07:28:38.566Z,6.38
2022-11-22T07:31:08.978Z,6.32
2022-11-22T07:33:37.048Z,6.32
2022-11-22T07:36:05.596Z,6.45
2022-11-22T07:38:33.312Z,6.64
2022-11-22T07:41:00.915Z,6.80
2022-11-22T07:43:28.478Z,6.89
2022-11-22T07:45:59.935Z,6.96
2022-11-22T07:48:28.816Z,7.08
2022-11-22T07:50:56.449Z,7.26
2022-11-22T07:53:24.164Z,7.13
2022-11-22T07:55:51.682Z,7.22
2022-11-22T07:58:19.401Z,6.98
2022-11-22T08:00:46.941Z,7.11
2022-11-22T08:03:17.839Z,6.86
2022-11-22T08:05:47.208Z,7.13
2022-11-22T08:08:14.800Z,7.50
2022-11-22T08:10:42.340Z,7.77
2022-11-22T08:13:09.859Z,7.56
2022-11-22T08:15:37.404Z,7.77
2022-11-22T08:18:04.970Z,7.79
2022-11-22T08:20:32.520Z,8.43
2022-11-22T08:23:01.438Z,8.65
2022-11-22T08:25:29.026Z,8.69
2022-11-22T08:27:57.372Z,8.80
2022-11-22T08:30:25.098Z,9.10
2022-11-22T08:32:55.511Z,9.43
2022-11-22T08:35:23.531Z,9.74
2022-11-22T08:37:51.095Z,9.75
2022-11-22T08:40:19.983Z,9.84
2022-11-22T08:42:47.487Z,9.54
2022-11-22T08:45:15.108Z,9.65
2022-11-22T08:47:42.624Z,9.43
2022-11-22T08:50:12.014Z,9.31
2022-11-22T08:52:39.542Z,9.44
2022-11-22T08:55:08.321Z,9.14
2022-11-22T08:57:37.225Z,8.97
2022-11-22T09:00:06.153Z,9.05
2022-11-22T09:02:33.848Z,9.18
2022-11-22T09:05:01.375Z,9.36
2022-11-22T09:10:17.541Z,9.61
2022-11-22T09:12:47.010Z,9.54
2022-11-22T09:15:15.659Z,9.75
2022-11-22T09:17:43.623Z,10.18
2022-11-22T09:20:12.469Z,10.50
2022-11-22T09:22:40.677Z,10.72
2022-11-22T09:25:08.860Z,10.66
2022-11-22T09:27:36.702Z,10.51
2022-11-22T09:30:06.565Z,10.83
2022-11-22T09:32:34.137Z,10.83
2022-11-22T09:35:01.703Z,10.54
2022-11-22T09:37:29.432Z,10.23
2022-11-22T09:39:56.950Z,10.24
2022-11-22T09:42:44.251Z,10.32
2022-11-22T09:45:29.806Z,10.07
2022-11-22T09:48:09.730Z,10.12
2022-11-22T09:50:47.864Z,10.16
2022-11-22T09:53:21.418Z,10.30
2022-11-22T09:55:53.527Z,10.56
2022-11-22T09:58:28.865Z,10.14
2022-11-22T10:01:04.565Z,10.30
2022-11-22T10:03:41.544Z,9.76
2022-11-22T10:06:15.476Z,9.71
2022-11-22T10:08:53.148Z,10.08
2022-11-22T10:11:36.647Z,10.11
2022-11-22T10:14:11.957Z,9.92
2022-11-22T10:16:45.142Z,10.29
2022-11-22T10:19:17.585Z,10.66
2022-11-22T10:21:47.586Z,10.91
2022-11-22T10:24:17.696Z,10.83
2022-11-22T10:26:46.767Z,11.16
2022-11-22T10:29:27.317Z,11.06
2022-11-22T10:32:05.922Z,11.30
2022-11-22T10:34:49.950Z,11.31
2022-11-22T10:37:29.266Z,11.32
2022-11-22T10:40:04.911Z,11.78
2022-11-22T10:42:49.638Z,11.73
2022-11-22T10:45:21.842Z,11.55
2022-11-22T10:48:01.505Z,11.65
2022-11-22T10:50:46.565Z,11.73
2022-11-22T10:53:26.124Z,12.00
2022-11-22T10:55:59.690Z,11.72
2022-11-22T10:58:38.078Z,11.66
2022-11-22T11:01:13.834Z,11.58
2022-11-22T11:03:45.202Z,11.56
2022-11-22T11:06:29.549Z,10.93
2022-11-22T11:10:02.871Z,10.66
2022-11-22T11:12:02.636Z,11.26
2022-11-22T11:14:33.713Z,11.12
2022-11-22T11:17:02.266Z,11.08
2022-11-22T11:19:34.722Z,11.36
2022-11-22T11:22:30.528Z,11.24
2022-11-22T11:25:30.467Z,10.63
2022-11-22T11:28:01.868Z,10.64
2022-11-22T11:30:30.003Z,10.39
2022-11-22T11:32:57.936Z,10.33
2022-11-22T11:35:29.594Z,10.66
2022-11-22T11:37:58.206Z,10.44
2022-11-22T11:40:30.766Z,10.63
2022-11-22T11:43:21.032Z,10.70
2022-11-22T11:45:49.062Z,11.03
2022-11-22T11:48:28.653Z,11.15
2022-11-22T11:51:22.021Z,11.60
2022-11-22T11:54:02.586Z,11.72
2022-11-22T11:56:40.243Z,12.01
2022-11-22T11:59:14.132Z,12.17
2022-11-22T12:01:51.231Z,12.18
2022-11-22T12:04:23.604Z,11.85
2022-11-22T12:07:02.953Z,12.00
2022-11-22T12:09:44.073Z,11.74
2022-11-22T12:12:36.750Z,11.54
2022-11-22T12:15:13.940Z,11.98
2022-11-22T12:17:50.646Z,12.23
2022-11-22T12:20:23.201Z,12.32
2022-11-22T12:23:10.240Z,12.41
2022-11-22T12:25:40.209Z,12.41
2022-11-22T12:28:17.664Z,12.44
2022-11-22T12:30:47.544Z,11.85
2022-11-22T12:33:20.139Z,11.96
2022-11-22T12:35:49.525Z,12.08
2022-11-22T12:38:21.409Z,12.52
2022-11-22T12:40:52.683Z,12.65
2022-11-22T12:43:25.547Z,12.61
2022-11-22T12:45:56.347Z,12.93
2022-11-22T12:48:31.135Z,12.51
2022-11-22T12:51:04.839Z,12.34
2022-11-22T12:53:38.092Z,12.25
2022-11-22T12:56:12.226Z,11.80
2022-11-22T12:58:44.481Z,11.92
2022-11-22T13:01:18.847Z,12.42
2022-11-22T13:03:54.665Z,12.38
2022-11-22T13:06:26.049Z,11.82
2022-11-22T13:09:04.013Z,11.32
2022-11-22T13:11:35.280Z,10.90
2022-11-22T13:14:07.408Z,10.47
2022-11-22T13:16:35.639Z,10.23
2022-11-22T13:19:05.958Z,9.93
2022-11-22T13:21:44.788Z,9.96
2022-11-22T13:24:29.901Z,9.73
2022-11-22T13:27:09.025Z,9.58
2022-11-22T13:29:37.832Z,9.75
2022-11-22T13:32:09.001Z,9.51
2022-11-22T13:34:40.720Z,9.46
2022-11-22T13:37:12.382Z,9.28
2022-11-22T13:39:44.717Z,9.36
2022-11-22T13:42:15.704Z,9.54
2022-11-22T13:45:07.415Z,9.50
2022-11-22T13:47:37.888Z,9.46
2022-11-22T13:50:38.615Z,9.54
2022-11-22T13:53:22.941Z,9.84
2022-11-22T13:55:52.119Z,9.26
2022-11-22T13:58:52.767Z,9.36
2022-11-22T14:02:04.639Z,9.12
2022-11-22T14:04:44.325Z,9.16
2022-11-22T14:07:39.985Z,9.50
2022-11-22T14:10:28.014Z,9.54
2022-11-22T14:13:31.115Z,9.65
2022-11-22T14:16:08.036Z,9.61
2022-11-22T14:18:58.218Z,9.58
2022-11-22T14:21:50.654Z,9.97
2022-11-22T14:24:32.692Z,9.90
2022-11-22T14:27:09.138Z,9.83
2022-11-22T14:30:08.033Z,9.53
2022-11-22T14:32:50.100Z,9.10
2022-11-22T14:35:32.285Z,8.54
2022-11-22T14:38:38.713Z,8.72
2022-11-22T14:41:45.964Z,8.70
2022-11-22T14:44:18.171Z,8.59
2022-11-22T14:46:53.974Z,8.66
2022-11-22T14:49:30.977Z,8.76
2022-11-22T14:52:01.179Z,8.74
2022-11-22T14:54:39.649Z,8.52
2022-11-22T14:57:08.970Z,8.78
2022-11-22T15:00:01.813Z,8.94
2022-11-22T15:02:57.732Z,9.01
2022-11-22T15:09:17.684Z,8.77
2022-11-22T15:09:20.086Z,8.77
2022-11-22T15:12:09.180Z,8.32
2022-11-22T15:59:10.691Z,7.51
2022-11-22T16:01:41.079Z,7.40
2022-11-22T16:04:21.214Z,7.34
2022-11-22T16:06:49.360Z,7.23
2022-11-22T16:09:25.643Z,7.39
2022-11-22T16:12:01.396Z,7.39
2022-11-22T16:14:48.123Z,7.40
2022-11-22T16:17:27.502Z,7.61
2022-11-22T16:20:32.435Z,7.79
2022-11-22T16:23:19.771Z,7.94
2022-11-22T16:25:49.690Z,7.79
2022-11-22T16:28:28.256Z,7.87
2022-11-22T16:30:59.308Z,8.00
2022-11-22T16:33:26.948Z,8.11
2022-11-22T16:35:56.002Z,8.10
2022-11-22T16:38:24.483Z,8.05
2022-11-22T16:40:53.042Z,8.05
2022-11-22T16:43:22.840Z,7.78
2022-11-22T16:45:51.002Z,7.72
2022-11-22T16:48:31.663Z,7.76
2022-11-22T16:51:03.945Z,7.80
2022-11-22T16:53:38.728Z,7.70
2022-11-22T16:56:06.739Z,7.90
2022-11-22T16:58:34.290Z,7.59
2022-11-22T17:01:02.140Z,7.69
2022-11-22T17:03:33.693Z,7.67
2022-11-22T17:06:01.228Z,7.78
2022-11-22T17:08:28.730Z,8.01
2022-11-22T17:10:57.305Z,8.00
2022-11-22T17:13:26.551Z,7.64
2022-11-22T17:15:55.665Z,7.66
2022-11-22T17:18:23.319Z,7.67
2022-11-22T17:20:52.351Z,7.67
2022-11-22T17:23:27.078Z,7.72
2022-11-22T17:25:54.648Z,7.74
2022-11-22T17:28:22.183Z,7.86
2022-11-22T17:30:50.225Z,7.83
2022-11-22T17:33:17.823Z,7.66
2022-11-22T17:35:45.716Z,7.74
2022-11-22T17:38:14.580Z,7.70
2022-11-22T17:40:42.192Z,7.39
2022-11-22T17:43:10.191Z,7.28
2022-11-22T17:45:42.370Z,7.06
2022-11-22T17:48:10.255Z,6.72
2022-11-22T17:50:37.769Z,6.44
2022-11-22T17:53:05.416Z,6.20
2022-11-22T17:55:54.698Z,6.43
2022-11-22T17:58:21.747Z,6.65
2022-11-22T18:00:49.338Z,6.71
2022-11-22T18:03:16.919Z,6.58
2022-11-22T18:05:44.531Z,6.80
2022-11-22T18:08:12.599Z,6.96
2022-11-22T18:10:41.461Z,6.75
2022-11-22T18:13:24.347Z,6.52
2022-11-22T18:15:52.556Z,6.71
2022-11-22T18:18:48.660Z,6.73
2022-11-22T18:21:14.063Z,6.72
2022-11-22T18:23:45.086Z,7.10
2022-11-22T18:26:38.435Z,6.91
2022-11-22T18:29:35.547Z,7.01
2022-11-22T18:31:53.428Z,6.90
2022-11-22T18:34:21.466Z,6.80
2022-11-22T18:37:01.271Z,7.11
2022-11-22T18:39:30.772Z,7.11
2022-11-22T18:41:59.941Z,7.12
2022-11-22T18:44:27.605Z,7.30
2022-11-22T18:46:55.148Z,7.33
2022-11-22T18:49:22.733Z,7.38
2022-11-22T18:51:50.300Z,7.50
2022-11-22T18:54:18.235Z,7.44
2022-11-22T18:56:45.770Z,7.39
2022-11-22T18:59:14.733Z,7.22
2022-11-22T19:01:42.796Z,7.17
2022-11-22T19:04:13.748Z,6.68
2022-11-22T19:06:41.845Z,6.66
2022-11-22T19:09:10.057Z,6.54
2022-11-22T19:11:38.271Z,6.64
2022-11-22T19:14:05.847Z,7.24
2022-11-22T19:16:34.889Z,7.51
2022-11-22T19:19:02.443Z,7.62
2022-11-22T19:21:30.694Z,7.61
2022-11-22T19:23:58.604Z,7.35
2022-11-22T19:26:28.094Z,7.25
2022-11-22T19:28:57.418Z,7.43
2022-11-22T19:31:27.615Z,7.54
2022-11-22T19:33:56.481Z,7.29
2022-11-22T19:36:32.341Z,7.08
2022-11-22T19:39:00.804Z,7.16
2022-11-22T19:41:28.379Z,7.20
2022-11-22T19:43:57.155Z,6.98
2022-11-22T19:46:24.792Z,6.81
2022-11-22T19:48:52.724Z,6.96
2022-11-22T19:51:22.387Z,6.92
2022-11-22T19:53:53.192Z,6.90
2022-11-22T19:56:21.264Z,6.80
2022-11-22T19:58:51.798Z,7.04
2022-11-22T20:01:19.765Z,7.32
2022-11-22T20:03:51.365Z,7.43
2022-11-22T20:06:18.972Z,7.40
2022-11-22T20:08:48.010Z,6.92
2022-11-22T20:11:17.464Z,6.81
2022-11-22T20:13:47.125Z,6.44
2022-11-22T20:16:16.663Z,6.57
2022-11-22T20:18:44.587Z,6.61
2022-11-22T20:21:12.724Z,6.21
2022-11-22T20:23:41.771Z,5.87
2022-11-22T20:26:12.341Z,5.93
2022-11-22T20:28:41.239Z,5.82
2022-11-22T20:31:09.761Z,6.18
2022-11-22T20:33:39.234Z,6.83
2022-11-22T20:36:09.184Z,7.11
2022-11-22T20:38:38.668Z,7.08
2022-11-22T20:41:06.835Z,7.09
2022-11-22T20:43:36.883Z,7.00
2022-11-22T20:46:06.261Z,7.17
2022-11-22T20:48:34.704Z,6.82
2022-11-22T20:51:05.291Z,6.77
2022-11-22T20:53:33.476Z,6.35
2022-11-22T20:56:01.039Z,6.34
2022-11-22T20:58:29.160Z,6.11
2022-11-22T21:00:58.210Z,6.28
2022-11-22T21:03:26.377Z,6.63
2022-11-22T21:05:55.189Z,6.59
2022-11-22T21:08:24.268Z,6.73
2022-11-22T21:10:51.767Z,6.58
2022-11-22T21:13:19.349Z,6.42
2022-11-22T21:15:46.871Z,6.54
2022-11-22T21:18:31.185Z,6.56
2022-11-22T21:21:09.826Z,6.65
2022-11-22T21:23:37.693Z,6.41
2022-11-22T21:26:06.893Z,6.01
2022-11-22T21:28:35.216Z,5.99
2022-11-22T21:31:03.341Z,6.12
2022-11-22T21:33:33.643Z,6.22
2022-11-22T21:36:01.821Z,6.47
2022-11-22T21:38:31.390Z,6.78
2022-11-22T21:41:17.306Z,6.74
2022-11-22T21:43:50.602Z,6.73
2022-11-22T21:46:20.292Z,5.87
2022-11-22T21:48:51.702Z,5.96
2022-11-22T21:51:19.361Z,6.27
2022-11-22T21:53:46.898Z,6.36
2022-11-22T21:56:14.468Z,6.40
2022-11-22T21:58:43.104Z,6.78
2022-11-22T22:01:14.289Z,6.71
2022-11-22T22:03:42.123Z,6.64
2022-11-22T22:06:11.029Z,6.65
2022-11-22T22:08:40.490Z,6.18
2022-11-22T22:11:08.264Z,6.37
2022-11-22T22:13:36.035Z,6.44
2022-11-22T22:16:06.646Z,6.52
2022-11-22T22:18:36.095Z,6.61
2022-11-22T22:21:05.853Z,6.79
2022-11-22T22:23:35.031Z,6.86
2022-11-22T22:26:04.358Z,6.84
2022-11-22T22:28:33.410Z,6.68
2022-11-22T22:31:06.682Z,6.66
2022-11-22T22:33:34.400Z,6.37
2022-11-22T22:36:01.979Z,6.68
2022-11-22T22:38:30.972Z,6.61
2022-11-22T22:41:00.984Z,6.71
2022-11-22T22:43:31.391Z,6.88
2022-11-22T22:46:06.404Z,6.66
2022-11-22T22:48:34.549Z,6.48
2022-11-22T22:51:06.641Z,6.34
2022-11-22T22:53:34.217Z,6.37
2022-11-22T22:56:03.330Z,6.59
2022-11-22T22:58:31.085Z,6.30
2022-11-22T23:01:05.497Z,6.17
2022-11-22T23:03:33.114Z,6.32
2022-11-22T23:06:00.780Z,6.13
2022-11-22T23:08:28.306Z,6.27
2022-11-22T23:10:55.848Z,6.18
2022-11-22T23:13:25.549Z,6.56
2022-11-22T23:15:58.204Z,6.59
2022-11-22T23:18:26.385Z,6.65
2022-11-22T23:20:58.478Z,6.63
2022-11-22T23:23:26.162Z,6.84
2022-11-22T23:25:53.730Z,6.79
2022-11-22T23:28:21.912Z,6.94
2022-11-22T23:30:50.955Z,6.73
2022-11-22T23:33:18.505Z,6.74
2022-11-22T23:35:46.003Z,6.79
2022-11-22T23:38:13.502Z,6.52
2022-11-22T23:40:41.021Z,6.61
2022-11-22T23:43:08.547Z,6.49
2022-11-22T23:45:36.061Z,6.11
2022-11-22T23:48:05.245Z,6.25
2022-11-22T23:50:37.147Z,6.49
2022-11-22T23:53:05.045Z,6.51
2022-11-22T23:55:32.574Z,6.34
2022-11-22T23:58:00.536Z,5.97
